Time;durP1;ratioP1;P1;durP2;ratioP2;P2;SDS_P1;SDS_P2;PMS_P1;PMS_P2;Temp;Humidity;BMP_temperature;BMP_pressure;BME280_temperature;BME280_humidity;BME280_pressure;Samples;Min_cycle;Max_cycle;Signal;HPM_P1;HPM_P2
2022/09/01 00:00:19;;;;;;;;;;;25.70;46.50;;;;;;1542207;76;2042;-64
2022/09/01 00:02:18;;;;;;;;;;;25.60;46.50;;;;;;1541967;76;1582;-64
2022/09/01 00:04:21;;;;;;;;;;;25.70;46.60;;;;;;1543048;76;756;-64
2022/09/01 00:06:23;;;;;;;;;;;25.60;46.60;;;;;;1542110;76;1916;-65
2022/09/01 00:08:25;;;;;;;;;;;25.60;46.60;;;;;;1543585;76;767;-65
2022/09/01 00:10:27;;;;;;;;;;;25.70;46.60;;;;;;1543023;76;748;-64
2022/09/01 00:12:29;;;;;;;;;;;25.70;46.50;;;;;;1539948;76;793;-65
2022/09/01 00:14:31;;;;;;;;;;;25.70;46.60;;;;;;1539507;76;702;-64
2022/09/01 00:16:33;;;;;;;;;;;25.70;46.60;;;;;;1542732;76;1159;-62
2022/09/01 00:18:36;;;;;;;;;;;25.70;46.60;;;;;;1542816;76;702;-63
2022/09/01 00:20:38;;;;;;;;;;;25.70;46.50;;;;;;1540059;76;863;-63
2022/09/01 00:22:39;;;;;;;;;;;25.70;46.50;;;;;;1542889;76;719;-63
2022/09/01 00:24:41;;;;;;;;;;;25.80;46.50;;;;;;1543346;76;739;-63
2022/09/01 00:26:43;;;;;;;;;;;25.70;46.50;;;;;;1543297;76;1947;-62
2022/09/01 00:28:45;;;;;;;;;;;25.70;46.60;;;;;;1535816;76;784;-62
2022/09/01 00:30:47;;;;;;;;;;;25.70;46.50;;;;;;1545822;76;743;-63
2022/09/01 00:32:49;;;;;;;;;;;25.70;46.50;;;;;;1537450;76;672;-62
2022/09/01 00:34:51;;;;;;;;;;;25.70;46.50;;;;;;1540056;76;777;-63
2022/09/01 00:36:53;;;;;;;;;;;25.70;46.50;;;;;;1543289;76;1155;-63
2022/09/01 00:38:54;;;;;;;;;;;25.70;46.50;;;;;;1543217;76;748;-63
2022/09/01 00:40:56;;;;;;;;;;;25.70;46.50;;;;;;1543613;76;728;-62
2022/09/01 00:42:59;;;;;;;;;;;25.70;46.50;;;;;;1543015;76;696;-63
2022/09/01 00:45:01;;;;;;;;;;;25.70;46.60;;;;;;1542615;76;744;-64
2022/09/01 00:47:05;;;;;;;;;;;25.70;46.50;;;;;;1543961;76;1943;-62
2022/09/01 00:49:08;;;;;;;;;;;25.70;46.50;;;;;;1540958;76;1659;-62
2022/09/01 00:51:10;;;;;;;;;;;25.70;46.50;;;;;;1539519;76;811;-62
2022/09/01 00:53:12;;;;;;;;;;;25.70;46.50;;;;;;1542311;76;702;-62
2022/09/01 00:55:18;;;;;;;;;;;25.70;46.50;;;;;;1540994;76;734;-63
2022/09/01 00:57:20;;;;;;;;;;;25.70;46.50;;;;;;1537633;76;1137;-62
2022/09/01 00:59:22;;;;;;;;;;;25.70;46.50;;;;;;1540540;76;692;-62
2022/09/01 01:01:24;;;;;;;;;;;25.70;46.50;;;;;;1538994;76;746;-62
2022/09/01 01:03:26;;;;;;;;;;;25.70;46.50;;;;;;1534812;76;761;-62
2022/09/01 01:05:31;;;;;;;;;;;25.70;46.50;;;;;;1541670;76;760;-63
2022/09/01 01:07:43;;;;;;;;;;;25.70;46.50;;;;;;1540153;76;792;-63
2022/09/01 01:09:38;;;;;;;;;;;25.60;46.50;;;;;;1536757;76;1676;-65
2022/09/01 01:11:43;;;;;;;;;;;25.60;46.50;;;;;;1542004;76;786;-63
2022/09/01 01:13:51;;;;;;;;;;;25.70;46.50;;;;;;1538080;76;1569;-63
2022/09/01 01:15:53;;;;;;;;;;;25.70;46.50;;;;;;1538304;76;1146;-63
2022/09/01 01:17:55;;;;;;;;;;;25.70;46.60;;;;;;1539248;76;827;-63
2022/09/01 01:24:28;;;;;;;;;;;25.60;46.60;;;;;;1549270;76;1658;-63
2022/09/01 01:26:30;;;;;;;;;;;25.60;46.60;;;;;;1549830;76;1955;-63
2022/09/01 01:28:34;;;;;;;;;;;25.60;46.60;;;;;;1540499;76;793;-63
2022/09/01 01:30:38;;;;;;;;;;;25.70;46.50;;;;;;1538952;76;672;-63
2022/09/01 01:32:41;;;;;;;;;;;25.70;46.50;;;;;;1539488;76;668;-63
2022/09/01 01:34:45;;;;;;;;;;;25.70;46.50;;;;;;1556587;76;756;-63
2022/09/01 01:36:48;;;;;;;;;;;25.70;46.50;;;;;;1548172;76;1667;-63
2022/09/01 01:38:51;;;;;;;;;;;25.70;46.60;;;;;;1545967;76;707;-63
2022/09/01 01:40:53;;;;;;;;;;;25.60;46.50;;;;;;1501511;77;726;-63
2022/09/01 01:42:56;;;;;;;;;;;25.70;46.50;;;;;;1548943;76;749;-63
2022/09/01 01:44:58;;;;;;;;;;;25.60;46.50;;;;;;1550461;76;1588;-64
2022/09/01 01:47:07;;;;;;;;;;;25.70;46.50;;;;;;1543322;76;1987;-64
2022/09/01 01:49:03;;;;;;;;;;;25.70;46.50;;;;;;1545676;76;1661;-63
2022/09/01 01:51:06;;;;;;;;;;;25.60;46.50;;;;;;1554987;76;781;-63
2022/09/01 01:53:08;;;;;;;;;;;25.60;46.50;;;;;;1543504;76;742;-63
2022/09/01 01:55:11;;;;;;;;;;;25.70;46.40;;;;;;1538366;76;681;-63
2022/09/01 01:57:16;;;;;;;;;;;25.60;46.50;;;;;;1545564;76;1100;-63
2022/09/01 01:59:18;;;;;;;;;;;25.60;46.50;;;;;;1548302;76;814;-63
2022/09/01 02:01:23;;;;;;;;;;;25.60;46.40;;;;;;1543701;76;763;-63
2022/09/01 02:03:25;;;;;;;;;;;25.60;46.50;;;;;;1552154;76;2077;-63
2022/09/01 02:05:28;;;;;;;;;;;25.60;46.50;;;;;;1541934;76;687;-63
2022/09/01 02:07:31;;;;;;;;;;;25.60;46.50;;;;;;1542731;76;1959;-63
2022/09/01 02:09:33;;;;;;;;;;;25.50;46.50;;;;;;1551767;76;679;-64
2022/09/01 02:11:36;;;;;;;;;;;25.60;46.50;;;;;;1551763;76;697;-63
2022/09/01 02:13:38;;;;;;;;;;;25.60;46.50;;;;;;1549096;76;722;-63
2022/09/01 02:15:44;;;;;;;;;;;25.50;46.50;;;;;;1543172;76;1144;-64
2022/09/01 02:17:47;;;;;;;;;;;25.50;46.50;;;;;;1545770;75;1114;-64
2022/09/01 02:19:49;;;;;;;;;;;25.60;46.50;;;;;;1543958;76;669;-63
2022/09/01 02:21:54;;;;;;;;;;;25.60;46.50;;;;;;1549432;76;712;-64
2022/09/01 02:24:04;;;;;;;;;;;25.60;46.50;;;;;;1533456;76;1656;-63
2022/09/01 02:26:07;;;;;;;;;;;25.60;46.50;;;;;;1542494;76;1936;-63
2022/09/01 02:28:14;;;;;;;;;;;25.60;46.50;;;;;;1549529;76;770;-63
2022/09/01 02:30:13;;;;;;;;;;;25.60;46.40;;;;;;1534293;76;1722;-63
2022/09/01 02:32:20;;;;;;;;;;;25.60;46.30;;;;;;1542049;76;758;-63
2022/09/01 02:34:18;;;;;;;;;;;25.60;46.30;;;;;;1549027;76;1660;-63
2022/09/01 02:36:20;;;;;;;;;;;25.50;46.30;;;;;;1532043;76;1171;-64
2022/09/01 02:38:27;;;;;;;;;;;25.60;46.30;;;;;;1554309;76;681;-63
2022/09/01 02:40:31;;;;;;;;;;;25.50;46.30;;;;;;1547301;76;1647;-63
2022/09/01 02:42:30;;;;;;;;;;;25.60;46.30;;;;;;1550952;76;1412;-63
2022/09/01 02:44:32;;;;;;;;;;;25.50;46.30;;;;;;1550554;76;622;-64
2022/09/01 02:46:36;;;;;;;;;;;25.60;46.30;;;;;;1552646;76;1933;-63
2022/09/01 02:48:39;;;;;;;;;;;25.50;46.30;;;;;;1550954;76;1976;-63
2022/09/01 02:50:41;;;;;;;;;;;25.50;46.20;;;;;;1541174;76;805;-63
2022/09/01 02:52:43;;;;;;;;;;;25.50;46.30;;;;;;1544493;76;710;-63
2022/09/01 02:54:47;;;;;;;;;;;25.50;46.30;;;;;;1548845;76;678;-63
2022/09/01 02:56:49;;;;;;;;;;;25.60;46.30;;;;;;1552243;76;1163;-64
2022/09/01 02:58:51;;;;;;;;;;;25.50;46.30;;;;;;1544883;76;812;-63
2022/09/01 03:00:54;;;;;;;;;;;25.50;46.40;;;;;;1548874;76;745;-64
2022/09/01 03:02:56;;;;;;;;;;;25.50;46.30;;;;;;1545073;76;717;-64
2022/09/01 03:04:58;;;;;;;;;;;25.50;46.30;;;;;;1552087;76;695;-63
2022/09/01 03:07:02;;;;;;;;;;;25.60;46.20;;;;;;1539019;76;1939;-64
2022/09/01 03:09:05;;;;;;;;;;;25.60;46.30;;;;;;1545705;76;1755;-65
2022/09/01 03:11:10;;;;;;;;;;;25.50;46.20;;;;;;1539520;76;646;-62
2022/09/01 03:13:13;;;;;;;;;;;25.60;46.30;;;;;;1551023;76;870;-62
2022/09/01 03:15:15;;;;;;;;;;;25.50;46.20;;;;;;1534712;76;683;-63
2022/09/01 03:17:17;;;;;;;;;;;25.50;46.30;;;;;;1549091;76;1131;-64
2022/09/01 03:19:19;;;;;;;;;;;25.60;46.30;;;;;;1541921;75;829;-63
2022/09/01 03:21:20;;;;;;;;;;;25.60;46.20;;;;;;1543030;76;700;-64
2022/09/01 03:23:24;;;;;;;;;;;25.70;46.20;;;;;;1543874;76;673;-62
2022/09/01 03:25:27;;;;;;;;;;;25.60;46.20;;;;;;1548008;76;722;-62
2022/09/01 03:27:29;;;;;;;;;;;25.60;46.10;;;;;;1543885;76;1928;-62
2022/09/01 03:29:31;;;;;;;;;;;25.60;46.10;;;;;;1540462;76;763;-62
2022/09/01 03:31:33;;;;;;;;;;;25.70;46.10;;;;;;1544972;76;728;-63
2022/09/01 03:33:35;;;;;;;;;;;25.60;46.20;;;;;;1544570;76;804;-62
2022/09/01 03:35:37;;;;;;;;;;;25.70;46.20;;;;;;1546275;76;1221;-63
2022/09/01 03:37:43;;;;;;;;;;;25.70;46.10;;;;;;1547948;76;1457;-63
2022/09/01 03:39:42;;;;;;;;;;;25.70;46.20;;;;;;1541326;76;1750;-63
2022/09/01 03:41:44;;;;;;;;;;;25.70;46.20;;;;;;1539015;76;724;-63
2022/09/01 03:43:46;;;;;;;;;;;25.70;46.20;;;;;;1546426;76;653;-63
2022/09/01 03:45:48;;;;;;;;;;;25.70;46.10;;;;;;1544567;76;1146;-63
2022/09/01 03:47:51;;;;;;;;;;;25.70;46.20;;;;;;1508437;77;2166;-62
2022/09/01 03:49:53;;;;;;;;;;;25.70;46.20;;;;;;1543954;76;879;-64
2022/09/01 03:51:56;;;;;;;;;;;25.60;46.20;;;;;;1544374;76;709;-63
2022/09/01 03:53:58;;;;;;;;;;;25.60;46.30;;;;;;1544668;76;744;-62
2022/09/01 03:56:00;;;;;;;;;;;25.60;46.20;;;;;;1545007;76;1154;-63
2022/09/01 03:58:08;;;;;;;;;;;25.70;46.20;;;;;;1507680;77;759;-62
2022/09/01 04:00:12;;;;;;;;;;;25.60;46.20;;;;;;1499640;78;2472;-63
2022/09/01 04:02:11;;;;;;;;;;;25.60;46.20;;;;;;1510981;77;1362;-63
2022/09/01 04:04:13;;;;;;;;;;;25.60;46.20;;;;;;1545032;76;779;-63
2022/09/01 04:06:18;;;;;;;;;;;25.60;46.20;;;;;;1537867;76;1151;-62
2022/09/01 04:08:19;;;;;;;;;;;25.50;46.20;;;;;;1547804;76;1941;-65
2022/09/01 04:10:21;;;;;;;;;;;25.60;46.20;;;;;;1545766;76;772;-63
2022/09/01 04:12:24;;;;;;;;;;;25.60;46.20;;;;;;1542996;76;742;-64
2022/09/01 04:14:26;;;;;;;;;;;25.50;46.20;;;;;;1547514;76;734;-64
2022/09/01 04:18:49;;;;;;;;;;;25.60;46.10;;;;;;1540967;76;1679;-63
2022/09/01 04:20:52;;;;;;;;;;;25.60;46.10;;;;;;1547759;76;661;-63
2022/09/01 04:22:55;;;;;;;;;;;25.60;46.20;;;;;;1548251;76;786;-64
2022/09/01 04:24:58;;;;;;;;;;;25.60;46.30;;;;;;1544647;76;794;-63
2022/09/01 04:27:01;;;;;;;;;;;25.50;46.20;;;;;;1561502;73;2104;-67
2022/09/01 04:29:03;;;;;;;;;;;25.60;46.20;;;;;;1572303;74;718;-69
2022/09/01 04:31:07;;;;;;;;;;;25.60;46.20;;;;;;1566970;74;690;-67
2022/09/01 04:33:09;;;;;;;;;;;25.50;46.20;;;;;;1566794;74;1513;-67
2022/09/01 04:35:15;;;;;;;;;;;25.50;46.30;;;;;;1566915;74;712;-66
2022/09/01 04:37:16;;;;;;;;;;;25.50;46.30;;;;;;1556345;74;1600;-66
2022/09/01 04:39:18;;;;;;;;;;;25.50;46.30;;;;;;1541599;75;686;-67
2022/09/01 04:41:21;;;;;;;;;;;25.50;46.30;;;;;;1541507;75;694;-67
2022/09/01 04:43:24;;;;;;;;;;;25.50;46.30;;;;;;1545112;75;675;-66
2022/09/01 04:45:26;;;;;;;;;;;25.60;46.30;;;;;;1538707;76;707;-67
2022/09/01 04:47:31;;;;;;;;;;;25.50;46.30;;;;;;1543430;75;1921;-66
2022/09/01 04:49:33;;;;;;;;;;;25.50;46.30;;;;;;1545572;75;814;-67
2022/09/01 04:51:37;;;;;;;;;;;25.50;46.30;;;;;;1549287;75;687;-67
2022/09/01 04:53:39;;;;;;;;;;;25.50;46.30;;;;;;1539105;75;1948;-67
2022/09/01 04:55:44;;;;;;;;;;;25.50;46.30;;;;;;1542028;76;798;-67
2022/09/01 04:57:48;;;;;;;;;;;25.50;46.30;;;;;;1542699;76;1111;-67
2022/09/01 04:59:49;;;;;;;;;;;25.50;46.20;;;;;;1543652;76;704;-67
2022/09/01 05:01:53;;;;;;;;;;;25.40;46.30;;;;;;1545411;76;818;-67
2022/09/01 05:04:01;;;;;;;;;;;25.50;46.30;;;;;;1540037;76;759;-67
2022/09/01 05:06:03;;;;;;;;;;;25.50;46.30;;;;;;1541791;75;1138;-67
2022/09/01 05:08:06;;;;;;;;;;;25.50;46.20;;;;;;1537185;75;1941;-67
2022/09/01 05:10:09;;;;;;;;;;;25.50;46.20;;;;;;1541322;75;706;-66
2022/09/01 05:12:10;;;;;;;;;;;25.50;46.20;;;;;;1543815;75;690;-67
2022/09/01 05:14:12;;;;;;;;;;;25.50;46.10;;;;;;1543298;75;778;-65
2022/09/01 05:16:15;;;;;;;;;;;25.50;46.20;;;;;;1541449;75;1156;-65
2022/09/01 05:18:22;;;;;;;;;;;25.50;46.20;;;;;;1540497;75;614;-66
2022/09/01 05:20:21;;;;;;;;;;;25.50;46.10;;;;;;1540957;75;1487;-66
2022/09/01 05:22:23;;;;;;;;;;;25.50;46.10;;;;;;1544783;76;758;-66
2022/09/01 05:24:33;;;;;;;;;;;25.50;46.10;;;;;;1543419;75;731;-66
2022/09/01 05:26:29;;;;;;;;;;;25.50;46.00;;;;;;1539888;75;1490;-67
2022/09/01 05:28:31;;;;;;;;;;;25.50;46.00;;;;;;1544432;75;1914;-67
2022/09/01 05:30:35;;;;;;;;;;;25.50;46.00;;;;;;1544719;76;1591;-67
2022/09/01 05:32:38;;;;;;;;;;;25.40;46.00;;;;;;1541639;75;725;-67
2022/09/01 05:34:42;;;;;;;;;;;25.50;46.10;;;;;;1543728;76;694;-67
2022/09/01 05:36:44;;;;;;;;;;;25.50;46.00;;;;;;1543324;75;1750;-66
2022/09/01 05:38:47;;;;;;;;;;;25.50;46.00;;;;;;1540465;75;714;-66
2022/09/01 05:40:56;;;;;;;;;;;25.50;46.00;;;;;;1545669;75;685;-68
2022/09/01 05:42:59;;;;;;;;;;;25.40;46.00;;;;;;1543028;75;743;-65
2022/09/01 05:45:01;;;;;;;;;;;25.50;46.00;;;;;;1541469;75;706;-65
2022/09/01 05:47:05;;;;;;;;;;;25.50;46.00;;;;;;1542591;76;1143;-65
2022/09/01 05:49:12;;;;;;;;;;;25.50;46.00;;;;;;1541784;76;1905;-68
2022/09/01 05:51:11;;;;;;;;;;;25.50;46.00;;;;;;1541192;75;1625;-67
2022/09/01 05:53:16;;;;;;;;;;;25.50;46.00;;;;;;1538587;76;718;-66
2022/09/01 05:55:18;;;;;;;;;;;25.50;46.10;;;;;;1532226;75;1130;-67
2022/09/01 05:57:20;;;;;;;;;;;25.50;46.00;;;;;;1547186;75;1157;-67
2022/09/01 05:59:22;;;;;;;;;;;25.50;46.00;;;;;;1540826;76;716;-67
2022/09/01 06:01:25;;;;;;;;;;;25.60;46.00;;;;;;1538894;75;735;-67
2022/09/01 06:03:27;;;;;;;;;;;25.50;45.90;;;;;;1541239;75;749;-67
2022/09/01 06:05:30;;;;;;;;;;;25.50;45.80;;;;;;1544702;75;761;-66
2022/09/01 06:07:34;;;;;;;;;;;25.50;45.90;;;;;;1544639;75;1938;-67
2022/09/01 06:09:37;;;;;;;;;;;25.50;45.90;;;;;;1544401;76;670;-67
2022/09/01 06:11:41;;;;;;;;;;;25.50;46.00;;;;;;1537641;75;700;-67
2022/09/01 06:13:43;;;;;;;;;;;25.50;46.00;;;;;;1544612;76;736;-66
2022/09/01 06:15:46;;;;;;;;;;;25.60;46.00;;;;;;1548721;76;757;-67
2022/09/01 06:17:48;;;;;;;;;;;25.60;45.80;;;;;;1546507;75;1140;-66
2022/09/01 06:19:54;;;;;;;;;;;25.60;45.70;;;;;;1547989;75;779;-66
2022/09/01 06:21:56;;;;;;;;;;;25.60;45.70;;;;;;1540568;75;735;-66
2022/09/01 06:23:58;;;;;;;;;;;25.50;45.70;;;;;;1552419;75;673;-66
2022/09/01 06:26:00;;;;;;;;;;;25.50;45.70;;;;;;1540848;75;1593;-66
2022/09/01 06:28:03;;;;;;;;;;;25.50;45.70;;;;;;1544893;75;1939;-67
2022/09/01 06:30:13;;;;;;;;;;;25.50;45.80;;;;;;1548335;76;710;-68
2022/09/01 06:32:11;;;;;;;;;;;25.50;45.80;;;;;;1541709;76;1698;-68
2022/09/01 06:34:14;;;;;;;;;;;25.60;45.80;;;;;;1543449;75;902;-67
2022/09/01 06:36:17;;;;;;;;;;;25.60;45.90;;;;;;1541159;76;1202;-66
2022/09/01 06:38:19;;;;;;;;;;;25.50;45.90;;;;;;1541987;76;781;-66
2022/09/01 06:40:24;;;;;;;;;;;25.60;45.80;;;;;;1541695;75;737;-67
2022/09/01 06:42:25;;;;;;;;;;;25.50;45.70;;;;;;1545634;75;1550;-65
2022/09/01 06:44:27;;;;;;;;;;;25.50;45.70;;;;;;1548162;76;666;-66
2022/09/01 06:46:30;;;;;;;;;;;25.50;45.70;;;;;;1542733;76;1166;-71
2022/09/01 06:48:32;;;;;;;;;;;25.50;45.70;;;;;;1545619;75;1908;-70
2022/09/01 06:50:34;;;;;;;;;;;25.50;45.70;;;;;;1548566;75;606;-69
2022/09/01 06:52:39;;;;;;;;;;;25.50;45.70;;;;;;1541705;75;688;-70
2022/09/01 06:54:42;;;;;;;;;;;25.50;45.70;;;;;;1541508;75;1616;-68
2022/09/01 06:56:44;;;;;;;;;;;25.50;45.70;;;;;;1551804;76;1631;-68
2022/09/01 06:58:47;;;;;;;;;;;25.50;45.70;;;;;;1545920;76;767;-67
2022/09/01 07:00:50;;;;;;;;;;;25.50;45.60;;;;;;1528178;75;756;-68
2022/09/01 07:02:53;;;;;;;;;;;25.50;45.60;;;;;;1553406;76;678;-66
2022/09/01 07:04:55;;;;;;;;;;;25.50;45.50;;;;;;1540134;75;687;-67
2022/09/01 07:06:57;;;;;;;;;;;25.50;45.50;;;;;;1534129;75;1154;-67
2022/09/01 07:09:00;;;;;;;;;;;25.50;45.40;;;;;;1552761;75;1917;-67
2022/09/01 07:11:05;;;;;;;;;;;25.50;45.40;;;;;;1541253;75;740;-68
2022/09/01 07:13:06;;;;;;;;;;;25.50;45.40;;;;;;1550108;76;2196;-66
2022/09/01 07:15:09;;;;;;;;;;;25.40;45.40;;;;;;1554624;76;760;-69
2022/09/01 07:17:14;;;;;;;;;;;25.50;45.20;;;;;;1552279;75;1162;-69
2022/09/01 07:19:14;;;;;;;;;;;25.50;45.00;;;;;;1546372;76;1674;-70
2022/09/01 07:21:17;;;;;;;;;;;25.50;44.10;;;;;;1542867;75;779;-67
2022/09/01 07:23:26;;;;;;;;;;;25.40;44.50;;;;;;1547232;76;1726;-68
2022/09/01 07:25:30;;;;;;;;;;;25.30;44.20;;;;;;1544927;75;561;-69
2022/09/01 07:27:32;;;;;;;;;;;25.40;43.70;;;;;;1551467;76;1155;-68
2022/09/01 07:29:34;;;;;;;;;;;25.10;43.10;;;;;;1548806;75;1928;-68
2022/09/01 07:31:37;;;;;;;;;;;25.00;43.40;;;;;;1541724;76;632;-68
2022/09/01 07:33:39;;;;;;;;;;;24.80;43.90;;;;;;1550640;75;672;-67
2022/09/01 07:35:41;;;;;;;;;;;24.80;44.10;;;;;;1530448;75;814;-68
2022/09/01 07:37:43;;;;;;;;;;;24.80;44.40;;;;;;1550616;76;1142;-65
2022/09/01 07:39:45;;;;;;;;;;;24.80;44.40;;;;;;1538495;75;701;-67
2022/09/01 07:41:47;;;;;;;;;;;24.90;44.60;;;;;;1547813;76;676;-67
2022/09/01 07:43:52;;;;;;;;;;;24.90;44.50;;;;;;1542851;76;796;-67
2022/09/01 07:45:54;;;;;;;;;;;24.80;43.90;;;;;;1542702;76;1666;-67
2022/09/01 07:47:58;;;;;;;;;;;24.70;44.40;;;;;;1545991;76;1934;-68
2022/09/01 07:50:00;;;;;;;;;;;24.70;44.50;;;;;;1545112;76;1698;-67
2022/09/01 07:52:02;;;;;;;;;;;24.60;44.30;;;;;;1544787;75;728;-67
2022/09/01 07:54:04;;;;;;;;;;;24.60;44.20;;;;;;1541648;75;668;-66
2022/09/01 07:56:10;;;;;;;;;;;24.50;44.30;;;;;;1549436;75;1141;-66
2022/09/01 07:58:12;;;;;;;;;;;24.60;44.30;;;;;;1542929;75;764;-68
2022/09/01 08:00:14;;;;;;;;;;;24.60;44.40;;;;;;1543786;75;693;-65
2022/09/01 08:02:17;;;;;;;;;;;24.60;44.30;;;;;;1536751;76;740;-67
2022/09/01 08:04:21;;;;;;;;;;;24.50;44.20;;;;;;1545451;75;776;-67
2022/09/01 08:06:25;;;;;;;;;;;24.30;44.40;;;;;;1545167;75;1756;-67
2022/09/01 08:08:26;;;;;;;;;;;24.30;44.50;;;;;;1542665;76;1940;-68
2022/09/01 08:10:28;;;;;;;;;;;24.30;44.60;;;;;;1552524;76;649;-67
2022/09/01 08:12:30;;;;;;;;;;;24.30;44.40;;;;;;1547395;75;741;-67
2022/09/01 08:14:32;;;;;;;;;;;24.30;44.40;;;;;;1542924;75;732;-67
2022/09/01 08:16:34;;;;;;;;;;;24.40;44.50;;;;;;1542965;75;1151;-67
2022/09/01 08:18:35;;;;;;;;;;;24.30;44.40;;;;;;1542805;75;1538;-67
2022/09/01 08:20:40;;;;;;;;;;;24.30;44.60;;;;;;1540031;76;645;-67
2022/09/01 08:22:42;;;;;;;;;;;24.20;44.40;;;;;;1538636;75;723;-67
2022/09/01 08:24:43;;;;;;;;;;;24.30;44.50;;;;;;1542848;75;660;-68
2022/09/01 08:26:45;;;;;;;;;;;24.40;44.40;;;;;;1545074;75;1107;-67
2022/09/01 08:28:47;;;;;;;;;;;24.30;44.20;;;;;;1539661;76;1921;-67
2022/09/01 08:30:49;;;;;;;;;;;24.40;44.30;;;;;;1543787;76;608;-67
2022/09/01 08:32:51;;;;;;;;;;;24.30;44.30;;;;;;1543136;75;746;-67
2022/09/01 08:34:53;;;;;;;;;;;24.40;44.30;;;;;;1542180;75;753;-67
2022/09/01 08:36:55;;;;;;;;;;;24.40;44.30;;;;;;1540342;75;1194;-67
2022/09/01 08:38:57;;;;;;;;;;;24.40;44.30;;;;;;1543919;75;841;-67
2022/09/01 08:40:59;;;;;;;;;;;24.40;44.30;;;;;;1543083;76;731;-67
2022/09/01 08:43:02;;;;;;;;;;;24.30;44.30;;;;;;1548041;75;681;-67
2022/09/01 08:45:22;;;;;;;;;;;24.40;44.30;;;;;;1546388;76;750;-65
2022/09/01 08:47:24;;;;;;;;;;;24.40;44.30;;;;;;1535549;75;1142;-67
2022/09/01 08:49:26;;;;;;;;;;;24.30;44.30;;;;;;1541825;76;1924;-67
2022/09/01 08:51:37;;;;;;;;;;;24.40;44.30;;;;;;1548168;75;739;-68
2022/09/01 08:53:57;;;;;;;;;;;24.30;44.30;;;;;;1546375;75;745;-67
2022/09/01 08:55:59;;;;;;;;;;;24.40;44.20;;;;;;1544459;75;1095;-67
2022/09/01 08:58:03;;;;;;;;;;;24.40;44.20;;;;;;1544130;76;767;-67
2022/09/01 09:00:10;;;;;;;;;;;24.30;44.30;;;;;;1541800;75;1637;-67
2022/09/01 09:02:16;;;;;;;;;;;24.40;44.20;;;;;;1543032;75;654;-66
2022/09/01 09:04:31;;;;;;;;;;;24.40;44.30;;;;;;1544881;76;2615;-67
2022/09/01 09:06:44;;;;;;;;;;;24.30;44.40;;;;;;1533817;75;1144;-67
2022/09/01 09:08:48;;;;;;;;;;;24.40;44.40;;;;;;1534775;76;1931;-68
2022/09/01 09:11:03;;;;;;;;;;;24.40;44.40;;;;;;1546559;75;817;-68
2022/09/01 09:13:07;;;;;;;;;;;24.30;44.40;;;;;;1553234;76;739;-67
2022/09/01 09:15:14;;;;;;;;;;;24.40;44.50;;;;;;1536220;75;1928;-69
2022/09/01 09:17:16;;;;;;;;;;;24.30;44.60;;;;;;1553010;75;1805;-66
2022/09/01 09:19:31;;;;;;;;;;;24.40;44.80;;;;;;1552504;75;731;-69
2022/09/01 09:21:35;;;;;;;;;;;24.40;44.50;;;;;;1544945;75;807;-68
2022/09/01 09:23:39;;;;;;;;;;;24.40;44.60;;;;;;1551624;75;1926;-68
2022/09/01 09:25:41;;;;;;;;;;;24.40;44.60;;;;;;1546001;76;758;-67
2022/09/01 09:27:44;;;;;;;;;;;24.40;44.60;;;;;;1532237;76;1091;-67
2022/09/01 09:29:46;;;;;;;;;;;24.40;44.50;;;;;;1544034;75;1932;-69
2022/09/01 09:31:49;;;;;;;;;;;24.50;44.40;;;;;;1548306;75;645;-69
2022/09/01 09:33:51;;;;;;;;;;;24.50;44.40;;;;;;1549448;76;673;-68
2022/09/01 09:35:56;;;;;;;;;;;24.50;44.40;;;;;;1549844;75;768;-67
2022/09/01 09:37:56;;;;;;;;;;;24.50;44.40;;;;;;1547035;75;1701;-67
2022/09/01 09:40:13;;;;;;;;;;;24.50;44.10;;;;;;1507701;77;677;-67
2022/09/01 09:42:12;;;;;;;;;;;24.40;44.40;;;;;;1534400;75;1610;-67
2022/09/01 09:44:19;;;;;;;;;;;24.40;44.50;;;;;;1538453;75;762;-66
2022/09/01 09:46:22;;;;;;;;;;;24.40;44.40;;;;;;1537654;75;1862;-66
2022/09/01 09:48:28;;;;;;;;;;;24.40;44.40;;;;;;1546920;76;612;-68
2022/09/01 09:50:31;;;;;;;;;;;24.50;44.50;;;;;;1551203;75;1931;-68
2022/09/01 09:52:33;;;;;;;;;;;24.50;44.50;;;;;;1549626;75;705;-67
2022/09/01 09:54:35;;;;;;;;;;;24.40;44.30;;;;;;1544878;75;709;-67
2022/09/01 09:56:37;;;;;;;;;;;24.50;44.70;;;;;;1548662;75;1146;-67
2022/09/01 09:58:40;;;;;;;;;;;24.50;44.70;;;;;;1543681;75;780;-69
2022/09/01 10:00:42;;;;;;;;;;;24.40;44.00;;;;;;1540680;75;693;-68
2022/09/01 10:02:44;;;;;;;;;;;24.50;44.40;;;;;;1504179;77;816;-67
2022/09/01 10:04:46;;;;;;;;;;;24.40;44.10;;;;;;1487629;78;671;-68
2022/09/01 10:06:48;;;;;;;;;;;24.40;44.00;;;;;;1541483;75;1137;-67
2022/09/01 10:08:50;;;;;;;;;;;24.30;44.40;;;;;;1541106;75;1933;-67
2022/09/01 10:10:52;;;;;;;;;;;24.30;44.60;;;;;;1544536;76;1572;-67
2022/09/01 10:12:54;;;;;;;;;;;24.30;44.60;;;;;;1543074;75;749;-68
2022/09/01 10:14:57;;;;;;;;;;;24.30;44.40;;;;;;1536128;75;812;-67
2022/09/01 10:17:04;;;;;;;;;;;24.20;44.20;;;;;;1543713;76;1261;-68
2022/09/01 10:19:06;;;;;;;;;;;24.20;44.50;;;;;;1545502;75;719;-67
2022/09/01 10:21:09;;;;;;;;;;;24.30;44.30;;;;;;1540387;76;804;-68
2022/09/01 10:23:11;;;;;;;;;;;24.20;44.00;;;;;;1541151;76;648;-70
2022/09/01 10:25:14;;;;;;;;;;;24.20;44.50;;;;;;1547385;75;683;-69
2022/09/01 10:27:23;;;;;;;;;;;24.30;44.60;;;;;;1567585;73;2055;-69
2022/09/01 10:29:27;;;;;;;;;;;24.30;44.40;;;;;;1612665;73;1926;-69
2022/09/01 10:31:29;;;;;;;;;;;24.40;44.40;;;;;;1608118;73;1035;-69
2022/09/01 10:33:30;;;;;;;;;;;24.30;44.10;;;;;;1608404;73;731;-69
2022/09/01 10:35:33;;;;;;;;;;;24.20;43.60;;;;;;1613422;73;689;-69
2022/09/01 10:37:35;;;;;;;;;;;24.20;44.20;;;;;;1611263;73;1293;-69
2022/09/01 10:39:39;;;;;;;;;;;24.20;43.80;;;;;;1570734;74;768;-69
2022/09/01 10:41:49;;;;;;;;;;;24.30;44.20;;;;;;1556448;73;1147;-69
2022/09/01 10:43:49;;;;;;;;;;;24.30;44.10;;;;;;1604228;73;1611;-69
2022/09/01 10:45:51;;;;;;;;;;;24.20;43.80;;;;;;1605698;74;823;-67
2022/09/01 10:47:53;;;;;;;;;;;24.20;43.30;;;;;;1605940;73;1143;-69
2022/09/01 10:49:56;;;;;;;;;;;24.20;42.70;;;;;;1605938;73;1930;-69
2022/09/01 10:51:58;;;;;;;;;;;24.20;43.10;;;;;;1605577;73;783;-69
2022/09/01 10:54:00;;;;;;;;;;;24.10;43.50;;;;;;1605976;73;715;-72
2022/09/01 10:56:03;;;;;;;;;;;24.10;43.40;;;;;;1605600;73;729;-71
2022/09/01 10:58:25;;;;;;;;;;;24.10;43.80;;;;;;1605856;73;1107;-68
2022/09/01 11:00:28;;;;;;;;;;;24.20;43.40;;;;;;1608658;73;671;-73
2022/09/01 11:02:31;;;;;;;;;;;24.20;43.60;;;;;;1602418;73;755;-72
2022/09/01 11:04:34;;;;;;;;;;;24.20;43.00;;;;;;1604336;73;700;-72
2022/09/01 11:06:43;;;;;;;;;;;24.10;43.50;;;;;;1605000;73;1450;-72
2022/09/01 11:08:47;;;;;;;;;;;24.20;43.20;;;;;;1598013;73;721;-72
2022/09/01 11:10:56;;;;;;;;;;;24.20;43.60;;;;;;1602821;73;1948;-73
2022/09/01 11:13:02;;;;;;;;;;;24.20;43.80;;;;;;1601923;73;1500;-72
2022/09/01 11:15:15;;;;;;;;;;;24.20;43.60;;;;;;1602362;73;1151;-73
2022/09/01 11:17:23;;;;;;;;;;;24.20;43.20;;;;;;1598812;73;1159;-71
2022/09/01 11:19:30;;;;;;;;;;;24.10;43.30;;;;;;1601159;73;826;-72
2022/09/01 11:21:32;;;;;;;;;;;24.20;43.50;;;;;;1599907;73;2046;-71
2022/09/01 11:23:34;;;;;;;;;;;24.10;43.20;;;;;;1601389;73;759;-72
2022/09/01 11:25:49;;;;;;;;;;;24.30;43.40;;;;;;1590160;73;682;-74
2022/09/01 11:27:53;;;;;;;;;;;24.30;43.50;;;;;;1601183;73;1146;-70
2022/09/01 11:29:56;;;;;;;;;;;24.30;43.50;;;;;;1605326;73;1903;-70
2022/09/01 11:31:58;;;;;;;;;;;24.40;43.60;;;;;;1601230;73;1949;-69
2022/09/01 11:34:05;;;;;;;;;;;24.30;43.60;;;;;;1597609;73;908;-68
2022/09/01 11:36:09;;;;;;;;;;;24.40;43.50;;;;;;1604431;73;731;-68
2022/09/01 11:38:11;;;;;;;;;;;24.40;43.40;;;;;;1604024;73;1852;-71
2022/09/01 11:40:13;;;;;;;;;;;24.50;43.40;;;;;;1602462;74;690;-70
2022/09/01 11:42:22;;;;;;;;;;;24.50;43.40;;;;;;1571248;74;1215;-72
2022/09/01 11:44:28;;;;;;;;;;;24.50;43.20;;;;;;1600093;73;1892;-72
2022/09/01 11:46:31;;;;;;;;;;;24.50;43.00;;;;;;1603772;73;1134;-73
2022/09/01 11:48:33;;;;;;;;;;;24.50;43.00;;;;;;1603557;73;752;-68
2022/09/01 11:50:36;;;;;;;;;;;24.60;42.90;;;;;;1607446;73;1932;-73
2022/09/01 11:52:38;;;;;;;;;;;24.50;42.80;;;;;;1602854;74;712;-71
2022/09/01 11:54:40;;;;;;;;;;;24.50;42.70;;;;;;1604845;73;681;-68
2022/09/01 11:56:42;;;;;;;;;;;24.40;42.20;;;;;;1601197;73;1099;-69
2022/09/01 11:58:44;;;;;;;;;;;24.50;42.80;;;;;;1603433;73;725;-68
2022/09/01 12:00:46;;;;;;;;;;;24.50;42.50;;;;;;1606352;73;710;-69
2022/09/01 12:02:49;;;;;;;;;;;24.40;41.80;;;;;;1599835;73;1527;-68
2022/09/01 12:04:53;;;;;;;;;;;24.40;41.90;;;;;;1604955;73;770;-68
2022/09/01 12:06:59;;;;;;;;;;;24.40;41.90;;;;;;1604102;73;1146;-68
2022/09/01 12:09:03;;;;;;;;;;;24.50;42.30;;;;;;1605269;73;755;-69
2022/09/01 12:11:21;;;;;;;;;;;24.50;42.40;;;;;;1604014;73;1910;-69
2022/09/01 12:13:23;;;;;;;;;;;24.50;42.30;;;;;;1602652;73;716;-68
2022/09/01 12:15:26;;;;;;;;;;;24.50;42.30;;;;;;1600160;73;705;-68
2022/09/01 12:17:28;;;;;;;;;;;24.50;42.30;;;;;;1601611;73;1132;-68
2022/09/01 12:19:31;;;;;;;;;;;24.60;42.30;;;;;;1604637;73;770;-68
2022/09/01 12:21:39;;;;;;;;;;;24.60;42.10;;;;;;1583601;73;722;-68